メインページ
METAR-TAF:

METAR-TAF

空港 :

マイアミ, フロリダ州, アメリカ合衆国

マイアミ国際空港

緯度: 25-47-26N, 経度: 080-18-59W, 海抜: 3m

現時点の気象観測

当レポートは1時間5分前の10:53(UTC)に作成
南東の風 9kt
気温 24°C
湿度 89%
気圧 1009 hPa
視程: 16.1km
高度1000ftの雲はほとんどない
高度4300ftの雲は散在している
高度7000ftの千切れ雲あり
高度13000ftの千切れ雲あり
小雨

METAR: KMIA 231053Z 14009KT 10SM -RA FEW010 SCT043 BKN070 BKN130 24/22 A2981 RMK AO2 SLP095 P0001 T02440222

時間: 07:58 (11:58 UTC)

予報

当レポートは2時間1分前の09:57(UTC)に作成
予報は23日の 10時(UTC)から 24日の 06時(UTC)まで有効
南東の風 10kt、最大18ktの突風を伴う
視程: 10km
高度2000ftの雲は散在している
高度4000ftの千切れ雲あり
高度13000ftの曇り
近辺でにわか雨
23日の 2000時(UTC)から
西/南西の風 10kt
視程: 10km
高度1500ftの雲はほとんどない
高度3000ftの雲は散在している
高度12000ftの千切れ雲あり
近辺でにわか雨

TAF: KMIA 230957Z 2310/2406 13010G18KT P6SM VCSH SCT020 BKN040 OVC130 FM232000 24010KT P6SM VCSH FEW015 SCT030 BKN120

4,000以上の空港の気象観測と天気予報(METAR報とTAF報)

利用可能な観測所は地図上に黄色い丸と赤い丸で示す。

丸の上にカーソルを重ねると観測所名を参照できる。

次にクリックすると気象観測と天気予報を参照できる。

マップの切り替え:黒色「×」印の緑ボタンをクリックして拡大、「-」印の緑ボタンをクリックして縮小、緑色の三角印をクリックして隣りの地図に切り替え


METAR-TAF: